createdAt,value
2018-11-22T01:29:10.778Z,3.18
2018-11-22T01:29:11.354Z,3.16
2018-11-22T01:29:11.953Z,3.24
2018-11-22T01:29:12.553Z,3.18
2018-11-22T01:29:13.155Z,3.23
2018-11-22T01:29:13.753Z,3.16
2018-11-22T01:29:14.353Z,3.16
2018-11-22T01:29:14.955Z,3.28
2018-11-22T01:30:09.457Z,3.20
2018-11-22T01:30:10.029Z,3.24
2018-11-22T01:30:10.630Z,3.23
2018-11-22T01:30:11.233Z,3.20
2018-11-22T01:30:11.830Z,3.25
2018-11-22T01:30:12.428Z,3.24
2018-11-22T01:30:13.028Z,3.25
2018-11-22T01:30:13.627Z,3.30
2018-11-22T01:31:07.085Z,3.18
2018-11-22T01:31:07.683Z,3.21
2018-11-22T01:31:08.283Z,3.21
2018-11-22T01:31:08.881Z,3.24
2018-11-22T01:31:09.482Z,3.21
2018-11-22T01:31:10.107Z,3.15
2018-11-22T01:31:10.681Z,3.27
2018-11-22T01:31:11.279Z,3.21
2018-11-22T01:32:04.745Z,3.23
2018-11-22T01:32:05.343Z,3.23
2018-11-22T01:32:05.935Z,3.23
2018-11-22T01:32:06.537Z,3.20
2018-11-22T01:32:07.135Z,3.28
2018-11-22T01:32:07.734Z,3.30
2018-11-22T01:32:08.334Z,3.25
2018-11-22T01:32:08.935Z,3.28
2018-11-22T01:33:03.413Z,3.18
2018-11-22T01:33:04.011Z,3.23
2018-11-22T01:33:04.610Z,3.18
2018-11-22T01:33:05.210Z,3.28
2018-11-22T01:33:05.811Z,3.20
2018-11-22T01:33:06.413Z,3.20
2018-11-22T01:33:07.009Z,3.20
2018-11-22T01:33:07.609Z,3.20
2018-11-22T01:34:02.090Z,3.25
2018-11-22T01:34:02.687Z,3.25
2018-11-22T01:34:03.287Z,3.21
2018-11-22T01:34:03.887Z,3.20
2018-11-22T01:34:04.486Z,3.28
2018-11-22T01:34:05.086Z,3.25
2018-11-22T01:34:05.685Z,3.28
2018-11-22T01:34:06.285Z,3.28
2018-11-22T01:34:59.743Z,3.16
2018-11-22T01:35:00.339Z,3.25
2018-11-22T01:35:00.940Z,3.27
2018-11-22T01:35:01.543Z,3.20
2018-11-22T01:35:02.138Z,3.24
2018-11-22T01:35:02.741Z,3.30
2018-11-22T01:35:03.338Z,3.28
2018-11-22T01:35:03.939Z,3.28
2018-11-22T01:35:57.417Z,3.21
2018-11-22T01:35:57.991Z,3.28
2018-11-22T01:35:58.591Z,3.16
2018-11-22T01:35:59.191Z,3.15
2018-11-22T01:35:59.791Z,3.18
2018-11-22T01:36:00.391Z,3.24
2018-11-22T01:36:00.991Z,3.20
2018-11-22T01:36:01.590Z,3.24
2018-11-22T01:36:56.070Z,3.31
2018-11-22T01:36:56.666Z,3.24
2018-11-22T01:36:57.267Z,3.27
2018-11-22T01:36:57.867Z,3.27
2018-11-22T01:36:58.466Z,3.33
2018-11-22T01:36:59.066Z,3.28
2018-11-22T01:36:59.664Z,3.24
2018-11-22T01:37:00.265Z,3.30
2018-11-22T01:37:53.722Z,3.31
2018-11-22T01:37:54.319Z,3.25
2018-11-22T01:37:54.919Z,3.24
2018-11-22T01:37:55.518Z,3.33
2018-11-22T01:37:56.118Z,3.24
2018-11-22T01:37:56.717Z,3.25
2018-11-22T01:37:57.322Z,3.24
2018-11-22T01:37:57.918Z,3.23
2018-11-22T01:38:52.399Z,3.28
2018-11-22T01:38:52.995Z,3.31
2018-11-22T01:38:53.594Z,3.23
2018-11-22T01:38:54.195Z,3.27
2018-11-22T01:38:54.797Z,3.39
2018-11-22T01:38:55.396Z,3.30
2018-11-22T01:38:55.994Z,3.33
2018-11-22T01:38:56.592Z,3.30
2018-11-22T01:39:51.074Z,3.30
2018-11-22T01:39:51.670Z,3.34
2018-11-22T01:39:52.271Z,3.31
2018-11-22T01:39:52.870Z,3.25
2018-11-22T01:39:53.469Z,3.33
2018-11-22T01:39:54.070Z,3.30
2018-11-22T01:39:54.674Z,3.33
2018-11-22T01:39:55.269Z,3.33
2018-11-22T01:40:48.724Z,3.39
2018-11-22T01:40:49.323Z,3.33
2018-11-22T01:40:49.922Z,3.31
2018-11-22T01:40:50.522Z,3.40
2018-11-22T01:40:51.122Z,3.30
2018-11-22T01:40:51.723Z,3.34
2018-11-22T01:40:52.322Z,3.34
2018-11-22T01:40:52.921Z,3.33
2018-11-22T01:41:47.426Z,3.33
2018-11-22T01:41:47.996Z,3.30
2018-11-22T01:41:48.598Z,3.33
2018-11-22T01:41:49.196Z,3.33
2018-11-22T01:41:49.797Z,3.33
2018-11-22T01:41:50.396Z,3.39
2018-11-22T01:41:50.996Z,3.31
2018-11-22T01:41:51.598Z,3.34
2018-11-22T01:42:45.055Z,3.34
2018-11-22T01:42:45.650Z,3.39
2018-11-22T01:42:46.250Z,3.30
2018-11-22T01:42:46.850Z,3.33
2018-11-22T01:42:47.450Z,3.40
2018-11-22T01:42:48.048Z,3.40
2018-11-22T01:42:48.652Z,3.30
2018-11-22T01:42:49.248Z,3.31
2018-11-22T01:43:42.706Z,3.46
2018-11-22T01:43:43.302Z,3.49
2018-11-22T01:43:43.904Z,3.46
2018-11-22T01:43:44.503Z,3.39
2018-11-22T01:43:45.101Z,3.33
2018-11-22T01:43:45.703Z,3.42
2018-11-22T01:43:46.301Z,3.42
2018-11-22T01:43:46.902Z,3.44
2018-11-22T01:44:40.356Z,3.36
2018-11-22T01:44:40.955Z,3.46
2018-11-22T01:44:41.555Z,3.43
2018-11-22T01:44:42.154Z,3.40
2018-11-22T01:44:42.754Z,3.42
2018-11-22T01:44:43.354Z,3.49
2018-11-22T01:44:43.954Z,3.43
2018-11-22T01:44:44.554Z,3.42
2018-11-22T01:45:38.008Z,3.43
2018-11-22T01:45:38.605Z,3.46
2018-11-22T01:45:39.206Z,3.40
2018-11-22T01:45:39.809Z,3.43
2018-11-22T01:45:40.404Z,3.39
2018-11-22T01:45:41.003Z,3.42
2018-11-22T01:45:41.604Z,3.52
2018-11-22T01:45:42.206Z,3.42
2018-11-22T01:46:36.712Z,3.52
2018-11-22T01:46:37.283Z,3.53
2018-11-22T01:46:37.880Z,3.54
2018-11-22T01:46:38.480Z,3.52
2018-11-22T01:46:39.080Z,3.57
2018-11-22T01:46:39.679Z,3.42
2018-11-22T01:46:40.283Z,3.40
2018-11-22T01:46:40.879Z,3.52
2018-11-22T01:47:34.336Z,3.52
2018-11-22T01:47:34.933Z,3.47
2018-11-22T01:47:35.532Z,3.42
2018-11-22T01:47:36.133Z,3.52
2018-11-22T01:47:36.733Z,3.50
2018-11-22T01:47:37.342Z,3.44
2018-11-22T01:47:37.931Z,3.54
2018-11-22T01:47:38.533Z,3.47
2018-11-22T01:48:33.010Z,3.53
2018-11-22T01:48:33.608Z,3.52
2018-11-22T01:48:34.207Z,3.47
2018-11-22T01:48:34.808Z,3.58
2018-11-22T01:48:35.407Z,3.53
2018-11-22T01:48:36.007Z,3.54
2018-11-22T01:48:36.607Z,3.54
2018-11-22T01:48:37.207Z,3.49
2018-11-22T01:49:31.690Z,3.54
2018-11-22T01:49:32.284Z,3.53
2018-11-22T01:49:32.883Z,3.60
2018-11-22T01:49:33.488Z,3.54
2018-11-22T01:49:34.085Z,3.54
2018-11-22T01:49:34.690Z,3.52
2018-11-22T01:49:35.282Z,3.54
2018-11-22T01:49:35.885Z,3.52
2018-11-22T01:50:30.362Z,3.54
2018-11-22T01:50:30.958Z,3.64
2018-11-22T01:50:31.560Z,3.60
2018-11-22T01:50:32.160Z,3.62
2018-11-22T01:50:32.760Z,3.61
2018-11-22T01:50:33.358Z,3.62
2018-11-22T01:50:33.958Z,3.54
2018-11-22T01:50:34.557Z,3.53
2018-11-22T01:51:28.016Z,3.67
2018-11-22T01:51:28.614Z,3.60
2018-11-22T01:51:29.253Z,3.62
2018-11-22T01:51:29.812Z,3.62
2018-11-22T01:51:30.411Z,3.62
2018-11-22T01:51:31.011Z,3.67
2018-11-22T01:51:31.611Z,3.60
2018-11-22T01:51:32.210Z,3.65
2018-11-22T01:52:26.712Z,3.71
2018-11-22T01:52:27.287Z,3.65
2018-11-22T01:52:27.886Z,3.67
2018-11-22T01:52:28.487Z,3.76
2018-11-22T01:52:29.086Z,3.60
2018-11-22T01:52:29.687Z,3.64
2018-11-22T01:52:30.285Z,3.65
2018-11-22T01:52:30.888Z,3.71
2018-11-22T01:53:25.366Z,3.62
2018-11-22T01:53:25.963Z,3.62
2018-11-22T01:53:26.563Z,3.70
2018-11-22T01:53:27.162Z,3.68
2018-11-22T01:53:27.761Z,3.65
2018-11-22T01:53:28.362Z,3.68
2018-11-22T01:53:28.961Z,3.71
2018-11-22T01:53:29.564Z,3.64
2018-11-22T01:54:24.041Z,3.76
2018-11-22T01:54:24.643Z,3.71
2018-11-22T01:54:25.238Z,3.65
2018-11-22T01:54:25.839Z,3.70
2018-11-22T01:54:26.438Z,3.78
2018-11-22T01:54:27.038Z,3.65
2018-11-22T01:54:27.637Z,3.71
2018-11-22T01:54:28.239Z,3.70
2018-11-22T01:55:22.719Z,3.64
2018-11-22T01:55:23.314Z,3.70
2018-11-22T01:55:23.916Z,3.67
2018-11-22T01:55:24.515Z,3.67
2018-11-22T01:55:25.114Z,3.78
2018-11-22T01:55:25.713Z,3.72
2018-11-22T01:55:26.313Z,3.71
2018-11-22T01:55:26.912Z,3.75
2018-11-22T01:56:21.394Z,3.72
2018-11-22T01:56:21.990Z,3.72
2018-11-22T01:56:22.590Z,3.67
2018-11-22T01:56:23.192Z,3.76
2018-11-22T01:56:23.789Z,3.79
2018-11-22T01:56:24.389Z,3.78
2018-11-22T01:56:24.989Z,3.68
2018-11-22T01:56:25.593Z,3.72
2018-11-22T01:57:19.070Z,3.68
2018-11-22T01:57:19.646Z,3.76
2018-11-22T01:57:20.242Z,3.75
2018-11-22T01:57:20.842Z,3.72
2018-11-22T01:57:21.440Z,3.75
2018-11-22T01:57:22.042Z,3.72
2018-11-22T01:57:22.642Z,3.72
2018-11-22T01:57:23.243Z,3.72
2018-11-22T01:58:17.720Z,3.80
2018-11-22T01:58:18.318Z,3.71
2018-11-22T01:58:18.916Z,3.76
2018-11-22T01:58:19.517Z,3.72
2018-11-22T01:58:20.117Z,3.78
2018-11-22T01:58:20.717Z,3.71
2018-11-22T01:58:21.315Z,3.78
2018-11-22T01:58:21.918Z,3.71
2018-11-22T01:59:16.395Z,3.71
2018-11-22T01:59:16.992Z,3.78
2018-11-22T01:59:17.593Z,3.75
2018-11-22T01:59:18.193Z,3.79
2018-11-22T01:59:18.792Z,3.76
2018-11-22T01:59:19.392Z,3.75
2018-11-22T01:59:19.993Z,3.71
2018-11-22T01:59:20.594Z,3.71
2018-11-22T02:00:15.076Z,3.71
2018-11-22T02:00:15.671Z,3.79
2018-11-22T02:00:16.268Z,3.75
2018-11-22T02:00:16.868Z,3.72
2018-11-22T02:00:17.469Z,3.71
2018-11-22T02:00:18.068Z,3.64
2018-11-22T02:00:18.668Z,3.71
2018-11-22T02:00:19.267Z,3.71
2018-11-22T02:01:13.747Z,3.65
2018-11-22T02:01:14.344Z,3.76
2018-11-22T02:01:14.944Z,3.61
2018-11-22T02:01:15.543Z,3.75
2018-11-22T02:01:16.145Z,3.76
2018-11-22T02:01:16.746Z,3.78
2018-11-22T02:01:17.344Z,3.71
2018-11-22T02:01:17.944Z,3.70
2018-11-22T02:02:11.433Z,3.72
2018-11-22T02:02:11.998Z,3.76
2018-11-22T02:02:12.603Z,3.64
2018-11-22T02:02:13.198Z,3.70
2018-11-22T02:02:13.796Z,3.76
2018-11-22T02:02:14.395Z,3.80
2018-11-22T02:02:14.996Z,3.70
2018-11-22T02:02:15.595Z,3.70
2018-11-22T02:03:09.053Z,3.72
2018-11-22T02:03:09.648Z,3.68
2018-11-22T02:03:10.249Z,3.78
2018-11-22T02:03:10.849Z,3.75
2018-11-22T02:03:11.448Z,3.78
2018-11-22T02:03:12.049Z,3.75
2018-11-22T02:03:12.649Z,3.78
2018-11-22T02:03:13.251Z,3.79
2018-11-22T02:04:07.726Z,3.75
2018-11-22T02:04:08.323Z,3.67
2018-11-22T02:04:08.923Z,3.75
2018-11-22T02:04:09.523Z,3.71
2018-11-22T02:04:10.126Z,3.75
2018-11-22T02:04:10.722Z,3.80
2018-11-22T02:04:11.323Z,3.79
2018-11-22T02:04:11.924Z,3.64
2018-11-22T02:05:05.378Z,3.80
2018-11-22T02:05:05.976Z,3.78
2018-11-22T02:05:06.576Z,3.76
2018-11-22T02:05:07.180Z,3.64
2018-11-22T02:05:07.776Z,3.78
2018-11-22T02:05:08.376Z,3.67
2018-11-22T02:05:08.975Z,3.76
2018-11-22T02:05:09.576Z,3.76
2018-11-22T02:06:03.031Z,3.71
2018-11-22T02:06:03.628Z,3.67
2018-11-22T02:06:04.227Z,3.72
2018-11-22T02:06:04.828Z,3.72
2018-11-22T02:06:05.432Z,3.80
2018-11-22T02:06:06.027Z,3.64
2018-11-22T02:06:06.626Z,3.78
2018-11-22T02:06:07.227Z,3.72
2018-11-22T02:07:01.708Z,3.76
2018-11-22T02:07:02.302Z,3.72
2018-11-22T02:07:02.901Z,3.71
2018-11-22T02:07:03.502Z,3.86
2018-11-22T02:07:04.103Z,3.70
2018-11-22T02:07:04.702Z,3.83
2018-11-22T02:07:05.302Z,3.71
2018-11-22T02:07:05.901Z,3.72
2018-11-22T02:07:59.382Z,3.68
2018-11-22T02:07:59.957Z,3.71
2018-11-22T02:08:00.555Z,3.70
2018-11-22T02:08:01.155Z,3.79
2018-11-22T02:08:01.757Z,3.76
2018-11-22T02:08:02.356Z,3.72
2018-11-22T02:08:02.955Z,3.68
2018-11-22T02:08:03.555Z,3.67
2018-11-22T02:08:57.009Z,3.72
2018-11-22T02:08:57.607Z,3.68
2018-11-22T02:08:58.211Z,3.82
2018-11-22T02:08:58.805Z,3.80
2018-11-22T02:08:59.411Z,3.71
2018-11-22T02:09:00.011Z,3.83
2018-11-22T02:09:00.605Z,3.83
2018-11-22T02:09:01.207Z,3.76
2018-11-22T02:09:54.665Z,3.64
2018-11-22T02:09:55.258Z,3.64
2018-11-22T02:09:55.857Z,3.67
2018-11-22T02:09:56.458Z,3.76
2018-11-22T02:09:57.057Z,3.67
2018-11-22T02:09:57.657Z,3.83
2018-11-22T02:09:58.257Z,3.72
2018-11-22T02:09:58.858Z,3.72
2018-11-22T02:10:52.312Z,3.72
2018-11-22T02:10:52.910Z,3.68
2018-11-22T02:10:53.510Z,3.72
2018-11-22T02:10:54.111Z,3.71
2018-11-22T02:10:54.709Z,3.79
2018-11-22T02:10:55.310Z,3.65
2018-11-22T02:10:55.909Z,3.70
2018-11-22T02:10:56.510Z,3.71
2018-11-22T02:11:49.965Z,3.76
2018-11-22T02:11:50.564Z,3.76
2018-11-22T02:11:51.161Z,3.72
2018-11-22T02:11:51.761Z,3.65
2018-11-22T02:11:52.362Z,3.70
2018-11-22T02:11:52.962Z,3.85
2018-11-22T02:11:53.562Z,3.67
2018-11-22T02:11:54.163Z,3.76
2018-11-22T02:12:47.646Z,3.65
2018-11-22T02:12:48.214Z,3.79
2018-11-22T02:12:48.814Z,3.78
2018-11-22T02:12:49.413Z,3.86
2018-11-22T02:12:50.016Z,3.72
2018-11-22T02:12:50.613Z,3.70
2018-11-22T02:12:51.217Z,3.79
2018-11-22T02:12:51.817Z,3.78
2018-11-22T02:13:45.269Z,3.83
2018-11-22T02:13:45.865Z,3.78
2018-11-22T02:13:46.465Z,3.76
2018-11-22T02:13:47.064Z,3.76
2018-11-22T02:13:47.665Z,3.76
2018-11-22T02:13:48.264Z,3.78
2018-11-22T02:13:48.864Z,3.80
2018-11-22T02:13:49.464Z,3.88
2018-11-22T02:14:43.943Z,3.76
2018-11-22T02:14:44.540Z,3.79
2018-11-22T02:14:45.140Z,3.80
2018-11-22T02:14:45.739Z,3.78
2018-11-22T02:14:46.340Z,3.76
2018-11-22T02:14:46.940Z,3.79
2018-11-22T02:14:47.538Z,3.90
2018-11-22T02:14:48.138Z,3.79
2018-11-22T02:15:42.619Z,3.80
2018-11-22T02:15:43.216Z,3.78
2018-11-22T02:15:43.815Z,3.75
2018-11-22T02:15:44.415Z,3.80
2018-11-22T02:15:45.017Z,3.79
2018-11-22T02:15:45.615Z,3.80
2018-11-22T02:15:46.221Z,3.83
2018-11-22T02:15:46.816Z,3.76
2018-11-22T02:16:40.271Z,3.90
2018-11-22T02:16:40.867Z,3.75
2018-11-22T02:16:41.468Z,3.80
2018-11-22T02:16:42.068Z,3.76
2018-11-22T02:16:42.670Z,3.79
2018-11-22T02:16:43.267Z,3.86
2018-11-22T02:16:43.868Z,3.72
2018-11-22T02:16:44.467Z,3.79
2018-11-22T02:17:38.952Z,3.68
2018-11-22T02:17:39.543Z,3.72
2018-11-22T02:17:40.143Z,3.71
2018-11-22T02:17:40.742Z,3.76
2018-11-22T02:17:41.343Z,3.76
2018-11-22T02:17:41.942Z,3.75
2018-11-22T02:17:42.545Z,3.85
2018-11-22T02:17:43.143Z,3.70
2018-11-22T02:18:37.645Z,3.72
2018-11-22T02:18:38.218Z,3.75
2018-11-22T02:18:38.819Z,3.76
2018-11-22T02:18:39.420Z,3.83
2018-11-22T02:18:40.022Z,3.80
2018-11-22T02:18:40.617Z,3.80
2018-11-22T02:18:41.217Z,3.83
2018-11-22T02:18:41.820Z,3.79
2018-11-22T02:19:35.273Z,3.85
2018-11-22T02:19:35.876Z,3.76
2018-11-22T02:19:36.473Z,3.76
2018-11-22T02:19:37.072Z,3.79
2018-11-22T02:19:37.671Z,3.76
2018-11-22T02:19:38.271Z,3.80
2018-11-22T02:19:38.871Z,3.80
2018-11-22T02:19:39.472Z,3.82
2018-11-22T02:20:33.950Z,3.88
2018-11-22T02:20:34.547Z,3.76
2018-11-22T02:20:35.147Z,3.80
2018-11-22T02:20:35.746Z,3.79
2018-11-22T02:20:36.346Z,3.76
2018-11-22T02:20:36.946Z,3.80
2018-11-22T02:20:37.546Z,3.79
2018-11-22T02:20:38.147Z,3.76
2018-11-22T02:21:32.624Z,3.75
2018-11-22T02:21:33.222Z,3.85
2018-11-22T02:21:33.823Z,3.79
2018-11-22T02:21:34.423Z,3.76
2018-11-22T02:21:35.022Z,3.71
2018-11-22T02:21:35.622Z,3.75
2018-11-22T02:21:36.223Z,3.78
2018-11-22T02:21:36.822Z,3.88
2018-11-22T02:22:31.330Z,3.78
2018-11-22T02:22:31.902Z,3.76
2018-11-22T02:22:32.502Z,3.79
2018-11-22T02:22:33.103Z,3.78
2018-11-22T02:22:33.701Z,3.78
2018-11-22T02:22:34.302Z,3.80
2018-11-22T02:22:34.901Z,3.78
2018-11-22T02:22:35.503Z,3.76
2018-11-22T02:23:29.001Z,3.80
2018-11-22T02:23:29.554Z,3.78
2018-11-22T02:23:30.156Z,3.76
2018-11-22T02:23:30.755Z,3.78
2018-11-22T02:23:31.356Z,3.80
2018-11-22T02:23:31.954Z,3.76
2018-11-22T02:23:32.554Z,3.76
2018-11-22T02:23:33.155Z,3.79
2018-11-22T02:24:26.612Z,3.79
2018-11-22T02:24:27.207Z,3.85
2018-11-22T02:24:27.807Z,3.83
2018-11-22T02:24:28.406Z,3.83
2018-11-22T02:24:29.007Z,3.79
2018-11-22T02:24:29.607Z,3.79
2018-11-22T02:24:30.207Z,3.75
2018-11-22T02:24:30.807Z,3.76
2018-11-22T02:25:25.285Z,3.80
2018-11-22T02:25:25.884Z,3.82
2018-11-22T02:25:26.482Z,3.80
2018-11-22T02:25:27.081Z,3.86
2018-11-22T02:25:27.681Z,3.86
2018-11-22T02:25:28.281Z,3.92
2018-11-22T02:25:28.880Z,3.88
2018-11-22T02:25:29.482Z,3.78
2018-11-22T02:26:22.938Z,3.89
2018-11-22T02:26:23.534Z,3.82
2018-11-22T02:26:24.134Z,3.88
2018-11-22T02:26:24.733Z,3.78
2018-11-22T02:26:25.333Z,3.83
2018-11-22T02:26:25.934Z,3.88
2018-11-22T02:26:26.534Z,3.80
2018-11-22T02:26:27.136Z,3.83
2018-11-22T02:27:21.635Z,3.85
2018-11-22T02:27:22.210Z,3.86
2018-11-22T02:27:22.809Z,3.82
2018-11-22T02:27:23.408Z,3.83
2018-11-22T02:27:24.011Z,3.86
2018-11-22T02:27:24.610Z,3.92
2018-11-22T02:27:25.249Z,3.79
2018-11-22T02:27:25.808Z,3.90
2018-11-22T02:28:19.263Z,3.82
2018-11-22T02:28:19.862Z,3.76
2018-11-22T02:28:20.461Z,3.78
2018-11-22T02:28:21.063Z,3.83
2018-11-22T02:28:21.662Z,3.78
2018-11-22T02:28:22.259Z,3.80
2018-11-22T02:28:22.861Z,3.80
2018-11-22T02:28:23.462Z,3.88
2018-11-22T02:29:17.940Z,3.76
2018-11-22T02:29:18.539Z,3.76
2018-11-22T02:29:19.137Z,3.76
2018-11-22T02:29:19.736Z,3.78
2018-11-22T02:29:20.337Z,3.78
2018-11-22T02:29:20.935Z,3.85
2018-11-22T02:29:21.536Z,3.80
2018-11-22T02:29:22.135Z,3.86
2018-11-22T02:30:16.620Z,3.86
2018-11-22T02:30:17.213Z,3.89
2018-11-22T02:30:17.811Z,3.96
2018-11-22T02:30:18.412Z,3.89
2018-11-22T02:30:19.013Z,3.79
2018-11-22T02:30:19.611Z,3.86
2018-11-22T02:30:20.211Z,3.82
2018-11-22T02:30:20.812Z,3.89
2018-11-22T02:31:14.267Z,3.78
2018-11-22T02:31:14.867Z,3.76
2018-11-22T02:31:15.464Z,3.76
2018-11-22T02:31:16.065Z,3.88
2018-11-22T02:31:16.664Z,3.76
2018-11-22T02:31:17.265Z,3.83
2018-11-22T02:31:17.864Z,3.80
2018-11-22T02:31:18.463Z,3.86
2018-11-22T02:32:12.971Z,3.88
2018-11-22T02:32:13.541Z,3.76
2018-11-22T02:32:14.143Z,3.80
2018-11-22T02:32:14.739Z,3.83
2018-11-22T02:32:15.341Z,3.79
2018-11-22T02:32:15.939Z,3.75
2018-11-22T02:32:16.540Z,3.82
2018-11-22T02:32:17.138Z,3.80
2018-11-22T02:33:10.597Z,3.76
2018-11-22T02:33:11.195Z,3.80
2018-11-22T02:33:11.797Z,3.82
2018-11-22T02:33:12.395Z,3.79
2018-11-22T02:33:12.993Z,3.83
2018-11-22T02:33:13.594Z,3.75
2018-11-22T02:33:14.194Z,3.80
2018-11-22T02:33:14.794Z,3.79
2018-11-22T02:34:08.247Z,3.79
2018-11-22T02:34:08.844Z,3.79
2018-11-22T02:34:09.443Z,3.80
2018-11-22T02:34:10.043Z,3.76
2018-11-22T02:34:10.642Z,3.80
2018-11-22T02:34:11.242Z,3.76
2018-11-22T02:34:11.846Z,3.79
2018-11-22T02:34:12.442Z,3.82
2018-11-22T02:35:05.899Z,3.78
2018-11-22T02:35:06.496Z,3.80
2018-11-22T02:35:07.100Z,3.76
2018-11-22T02:35:07.699Z,3.76
2018-11-22T02:35:08.295Z,3.85
2018-11-22T02:35:08.895Z,3.89
2018-11-22T02:35:09.494Z,3.85
2018-11-22T02:35:10.094Z,3.76
2018-11-22T02:36:04.574Z,3.78
2018-11-22T02:36:05.170Z,3.82
2018-11-22T02:36:05.771Z,3.76
2018-11-22T02:36:06.371Z,3.79
2018-11-22T02:36:06.971Z,3.86
2018-11-22T02:36:07.569Z,3.82
2018-11-22T02:36:08.169Z,3.82
2018-11-22T02:36:08.770Z,3.83
2018-11-22T02:37:03.253Z,3.80
2018-11-22T02:37:03.846Z,3.76
2018-11-22T02:37:04.445Z,3.83
2018-11-22T02:37:05.044Z,3.76
2018-11-22T02:37:05.646Z,3.83
2018-11-22T02:37:06.245Z,3.78
2018-11-22T02:37:06.845Z,3.83
2018-11-22T02:37:07.445Z,3.83
2018-11-22T02:38:00.924Z,3.76
2018-11-22T02:38:01.505Z,3.78
2018-11-22T02:38:02.101Z,3.83
2018-11-22T02:38:02.698Z,3.80
2018-11-22T02:38:03.299Z,3.83
2018-11-22T02:38:03.897Z,3.80
2018-11-22T02:38:04.500Z,3.80
2018-11-22T02:38:05.101Z,3.75
2018-11-22T02:38:58.553Z,3.79
2018-11-22T02:38:59.150Z,3.71
2018-11-22T02:38:59.751Z,3.76
2018-11-22T02:39:00.354Z,3.70
2018-11-22T02:39:00.952Z,3.78
2018-11-22T02:39:01.556Z,3.76
2018-11-22T02:39:02.152Z,3.70
2018-11-22T02:39:02.750Z,3.70
2018-11-22T02:39:56.204Z,3.78
2018-11-22T02:39:56.806Z,3.72
2018-11-22T02:39:57.402Z,3.72
2018-11-22T02:39:58.001Z,3.76
2018-11-22T02:39:58.600Z,3.72
2018-11-22T02:39:59.200Z,3.82
2018-11-22T02:39:59.800Z,3.71
2018-11-22T02:40:00.401Z,3.72
2018-11-22T02:40:53.857Z,3.83
2018-11-22T02:40:54.464Z,3.80
2018-11-22T02:40:55.059Z,3.75
2018-11-22T02:40:55.654Z,3.83
2018-11-22T02:40:56.255Z,3.71
2018-11-22T02:40:56.853Z,3.71
2018-11-22T02:40:57.454Z,3.79
2018-11-22T02:40:58.054Z,3.79
2018-11-22T02:41:51.514Z,3.75
2018-11-22T02:41:52.107Z,3.83
2018-11-22T02:41:52.705Z,3.76
2018-11-22T02:41:53.304Z,3.78
2018-11-22T02:41:53.905Z,3.80
2018-11-22T02:41:54.505Z,3.82
2018-11-22T02:41:55.106Z,3.82
2018-11-22T02:41:55.712Z,3.80
2018-11-22T02:42:49.185Z,3.80
2018-11-22T02:42:49.758Z,3.85
2018-11-22T02:42:50.356Z,3.72
2018-11-22T02:42:50.956Z,3.80
2018-11-22T02:42:51.557Z,3.76
2018-11-22T02:42:52.156Z,3.75
2018-11-22T02:42:52.761Z,3.79
2018-11-22T02:42:53.356Z,3.75
2018-11-22T02:43:47.860Z,3.88
2018-11-22T02:43:48.432Z,3.80
2018-11-22T02:43:49.032Z,3.79
2018-11-22T02:43:49.633Z,3.85
2018-11-22T02:43:50.232Z,3.78
2018-11-22T02:43:50.832Z,3.75
2018-11-22T02:43:51.431Z,3.75
2018-11-22T02:43:52.031Z,3.79
2018-11-22T02:44:46.535Z,3.76
2018-11-22T02:44:47.107Z,3.82
2018-11-22T02:44:47.706Z,3.79
2018-11-22T02:44:48.307Z,3.79
2018-11-22T02:44:48.906Z,3.78
2018-11-22T02:44:49.507Z,3.85
2018-11-22T02:44:50.108Z,3.76
2018-11-22T02:44:50.707Z,3.79
2018-11-22T02:45:44.186Z,3.79
2018-11-22T02:45:44.759Z,3.75
2018-11-22T02:45:45.360Z,3.80
2018-11-22T02:45:45.959Z,3.79
2018-11-22T02:45:46.561Z,3.85
2018-11-22T02:45:47.158Z,3.85
2018-11-22T02:45:47.761Z,3.79
2018-11-22T02:45:48.358Z,3.88
2018-11-22T02:46:41.840Z,3.75
2018-11-22T02:46:42.415Z,3.79
2018-11-22T02:46:43.012Z,3.78
2018-11-22T02:46:43.612Z,3.97
2018-11-22T02:46:44.212Z,3.90
2018-11-22T02:46:44.811Z,3.89
2018-11-22T02:46:45.412Z,3.76
2018-11-22T02:46:46.011Z,3.78
2018-11-22T02:47:39.489Z,3.85
2018-11-22T02:47:40.063Z,3.96
2018-11-22T02:47:40.664Z,3.80
2018-11-22T02:47:41.263Z,3.96
2018-11-22T02:47:41.863Z,3.88
2018-11-22T02:47:42.462Z,3.82
2018-11-22T02:47:43.062Z,3.75
2018-11-22T02:47:43.662Z,3.79
2018-11-22T02:48:37.118Z,3.86
2018-11-22T02:48:37.720Z,3.78
2018-11-22T02:48:38.314Z,3.85
2018-11-22T02:48:38.914Z,3.80
2018-11-22T02:48:39.515Z,3.85
2018-11-22T02:48:40.113Z,3.85
2018-11-22T02:48:40.714Z,3.80
2018-11-22T02:48:41.313Z,3.78
2018-11-22T02:49:34.769Z,3.75
2018-11-22T02:49:35.366Z,3.76
2018-11-22T02:49:35.967Z,3.72
2018-11-22T02:49:36.567Z,3.79
2018-11-22T02:49:37.166Z,3.90
2018-11-22T02:49:37.767Z,3.85
2018-11-22T02:49:38.370Z,3.83
2018-11-22T02:49:38.967Z,3.78
2018-11-22T02:50:32.420Z,3.80
2018-11-22T02:50:33.018Z,3.70
2018-11-22T02:50:33.619Z,3.76
2018-11-22T02:50:34.217Z,3.76
2018-11-22T02:50:34.817Z,3.82
2018-11-22T02:50:35.419Z,3.85
2018-11-22T02:50:36.019Z,3.75
2018-11-22T02:50:36.617Z,3.85
2018-11-22T02:51:30.073Z,3.76
2018-11-22T02:51:30.671Z,3.82
2018-11-22T02:51:31.269Z,3.79
2018-11-22T02:51:31.870Z,3.89
2018-11-22T02:51:32.472Z,3.79
2018-11-22T02:51:33.071Z,3.78
2018-11-22T02:51:33.671Z,3.90
2018-11-22T02:51:34.269Z,3.90
2018-11-22T02:52:28.772Z,3.83
2018-11-22T02:52:29.346Z,3.85
2018-11-22T02:52:29.948Z,3.94
2018-11-22T02:52:30.546Z,3.83
2018-11-22T02:52:31.144Z,3.89
2018-11-22T02:52:31.744Z,3.85
2018-11-22T02:52:32.345Z,3.86
2018-11-22T02:52:32.945Z,3.85
2018-11-22T02:53:26.400Z,3.79
2018-11-22T02:53:27.004Z,3.80
2018-11-22T02:53:27.598Z,3.80
2018-11-22T02:53:28.196Z,3.78
2018-11-22T02:53:28.796Z,3.78
2018-11-22T02:53:29.397Z,3.83
2018-11-22T02:53:29.996Z,3.88
2018-11-22T02:53:30.596Z,3.79
2018-11-22T02:54:25.077Z,3.82
2018-11-22T02:54:25.672Z,3.83
2018-11-22T02:54:26.271Z,3.79
2018-11-22T02:54:26.872Z,3.79
2018-11-22T02:54:27.472Z,3.78
2018-11-22T02:54:28.071Z,3.83
2018-11-22T02:54:28.673Z,3.83
2018-11-22T02:54:29.275Z,3.75
2018-11-22T02:55:23.752Z,3.72
2018-11-22T02:55:24.348Z,3.76
2018-11-22T02:55:24.952Z,3.79
2018-11-22T02:55:25.548Z,3.86
2018-11-22T02:55:26.147Z,3.79
2018-11-22T02:55:26.747Z,3.78
2018-11-22T02:55:27.349Z,3.76
2018-11-22T02:55:27.947Z,3.79
2018-11-22T02:56:21.405Z,3.82
2018-11-22T02:56:22.001Z,3.78
2018-11-22T02:56:22.604Z,3.82
2018-11-22T02:56:23.200Z,3.88
2018-11-22T02:56:23.801Z,3.78
2018-11-22T02:56:24.403Z,3.82
2018-11-22T02:56:25.000Z,3.79
2018-11-22T02:56:25.599Z,3.78
2018-11-22T02:57:20.103Z,3.71
2018-11-22T02:57:20.676Z,3.83
2018-11-22T02:57:21.279Z,3.76
2018-11-22T02:57:21.874Z,3.86
2018-11-22T02:57:22.473Z,3.78
2018-11-22T02:57:23.073Z,3.76
2018-11-22T02:57:23.674Z,3.76
2018-11-22T02:57:24.274Z,3.72
2018-11-22T02:58:18.755Z,3.79
2018-11-22T02:58:19.352Z,3.71
2018-11-22T02:58:19.952Z,3.76
2018-11-22T02:58:20.551Z,3.71
2018-11-22T02:58:21.150Z,3.78
2018-11-22T02:58:21.750Z,3.72
2018-11-22T02:58:22.350Z,3.80
2018-11-22T02:58:22.950Z,3.72
2018-11-22T02:59:17.428Z,3.68
2018-11-22T02:59:18.028Z,3.76
2018-11-22T02:59:18.626Z,3.89
2018-11-22T02:59:19.229Z,3.75
2018-11-22T02:59:19.826Z,3.75
2018-11-22T02:59:20.426Z,3.82
2018-11-22T02:59:21.028Z,3.78
2018-11-22T02:59:21.626Z,3.76
2018-11-22T03:00:15.082Z,3.72
2018-11-22T03:00:15.679Z,3.71
2018-11-22T03:00:16.281Z,3.75
2018-11-22T03:00:16.879Z,3.78
2018-11-22T03:00:17.479Z,3.75
2018-11-22T03:00:18.081Z,3.71
2018-11-22T03:00:18.679Z,3.82
2018-11-22T03:00:19.278Z,3.82
2018-11-22T03:01:13.757Z,3.76
2018-11-22T03:01:14.355Z,3.72
2018-11-22T03:01:14.955Z,3.70
2018-11-22T03:01:15.554Z,3.83
2018-11-22T03:01:16.154Z,3.79
2018-11-22T03:01:16.755Z,3.80
2018-11-22T03:01:17.353Z,3.88
2018-11-22T03:01:17.953Z,3.86
2018-11-22T03:02:12.437Z,3.65
2018-11-22T03:02:13.031Z,3.75
2018-11-22T03:02:13.631Z,3.75
2018-11-22T03:02:14.230Z,3.83
2018-11-22T03:02:14.830Z,3.71
2018-11-22T03:02:15.429Z,3.79
2018-11-22T03:02:16.030Z,3.76
2018-11-22T03:02:16.628Z,3.72
2018-11-22T03:03:10.112Z,3.71
2018-11-22T03:03:10.688Z,3.76
2018-11-22T03:03:11.282Z,3.82
2018-11-22T03:03:11.880Z,3.72
2018-11-22T03:03:12.482Z,3.68
2018-11-22T03:03:13.081Z,3.67
2018-11-22T03:03:13.679Z,3.71
2018-11-22T03:03:14.280Z,3.70
2018-11-22T03:04:08.761Z,3.65
2018-11-22T03:04:09.358Z,3.72
2018-11-22T03:04:09.957Z,3.62
2018-11-22T03:04:10.560Z,3.64
2018-11-22T03:04:11.157Z,3.75
2018-11-22T03:04:11.756Z,3.64
2018-11-22T03:04:12.359Z,3.72
2018-11-22T03:04:12.956Z,3.80
2018-11-22T03:05:06.413Z,3.71
2018-11-22T03:05:07.009Z,3.79
2018-11-22T03:05:07.611Z,3.75
2018-11-22T03:05:08.209Z,3.75
2018-11-22T03:05:08.808Z,3.78
2018-11-22T03:05:09.408Z,3.68
2018-11-22T03:05:10.009Z,3.65